createdAt,value
2022-09-07T06:26:14.365Z,101844.06
2022-09-07T06:28:57.197Z,101840.66
2022-09-07T06:31:34.886Z,101846.16
2022-09-07T06:34:12.058Z,101837.69
2022-09-07T06:36:48.929Z,101831.81
2022-09-07T06:39:26.445Z,101824.97
2022-09-07T06:42:06.350Z,101831.47
2022-09-07T06:44:44.401Z,101826.53
2022-09-07T06:47:21.048Z,101824.31
2022-09-07T06:49:58.295Z,101833.44
2022-09-07T06:55:32.756Z,101824.56
2022-09-07T06:58:12.276Z,101819.72
2022-09-07T07:00:50.519Z,101821.06
2022-09-07T07:03:27.678Z,101822.06
2022-09-07T07:06:05.088Z,101830.22
2022-09-07T07:08:42.433Z,101826.06
2022-09-07T07:11:20.206Z,101824.44
2022-09-07T07:14:00.498Z,101824.75
2022-09-07T07:16:39.398Z,101825.13
2022-09-07T07:19:16.638Z,101825.53
2022-09-07T07:24:52.227Z,101827.78
2022-09-07T07:27:29.496Z,101818.28
2022-09-07T07:30:10.727Z,101822.72
2022-09-07T07:32:50.975Z,101828.66
2022-09-07T07:35:28.366Z,101837.94
2022-09-07T07:44:01.246Z,101824.50
2022-09-07T07:46:41.654Z,101834.59
2022-09-07T07:49:20.869Z,101825.00
2022-09-07T07:54:55.434Z,101817.78
2022-09-07T07:57:35.861Z,101820.56
2022-09-07T08:00:23.639Z,101813.13
2022-09-07T08:03:15.540Z,101825.72
2022-09-07T08:05:52.711Z,101827.13
2022-09-07T08:08:29.464Z,101821.06
2022-09-07T08:11:08.782Z,101821.03
2022-09-07T08:13:47.621Z,101818.06
2022-09-07T08:16:24.756Z,101810.34
2022-09-07T08:19:06.036Z,101807.00
2022-09-07T08:21:43.106Z,101808.94
2022-09-07T08:24:20.022Z,101816.38
2022-09-07T08:26:57.385Z,101810.59
2022-09-07T08:29:35.473Z,101815.16
2022-09-07T08:32:12.822Z,101809.47
2022-09-07T08:34:52.297Z,101809.06
2022-09-07T08:37:29.454Z,101809.31
2022-09-07T08:40:07.364Z,101813.97
2022-09-07T08:43:01.138Z,101808.00
2022-09-07T08:45:44.896Z,101799.81
2022-09-07T08:48:27.089Z,101799.09
2022-09-07T08:51:15.406Z,101809.59
2022-09-07T08:53:53.405Z,101802.59
2022-09-07T08:56:34.995Z,101805.53
2022-09-07T08:59:23.633Z,101801.91
2022-09-07T09:08:12.577Z,101803.03
2022-09-07T09:11:03.542Z,101801.97
2022-09-07T09:14:00.059Z,101802.47
2022-09-07T09:16:46.084Z,101790.78
2022-09-07T09:19:45.309Z,101784.75
2022-09-07T09:22:26.980Z,101780.59
2022-09-07T09:25:19.323Z,101784.59
2022-09-07T09:27:56.444Z,101782.50
2022-09-07T09:30:33.826Z,101778.69
2022-09-07T09:33:21.345Z,101766.91
2022-09-07T09:36:00.227Z,101780.47
2022-09-07T09:38:40.115Z,101762.91
2022-09-07T09:41:20.367Z,101755.66
2022-09-07T09:43:59.586Z,101767.09
2022-09-07T09:46:40.357Z,101761.16
2022-09-07T09:49:23.488Z,101761.56
2022-09-07T10:04:04.672Z,101738.72
2022-09-07T10:06:54.670Z,101729.72
2022-09-07T10:09:38.360Z,101724.97
2022-09-07T10:12:32.575Z,101733.16
2022-09-07T10:15:30.762Z,101732.47
2022-09-07T10:18:10.241Z,101735.03
2022-09-07T10:20:47.235Z,101724.41
2022-09-07T10:23:27.312Z,101731.47
2022-09-07T10:26:32.377Z,101725.72
2022-09-07T10:29:19.571Z,101728.59
2022-09-07T10:32:21.695Z,101728.44
2022-09-07T10:35:17.496Z,101722.00
2022-09-07T10:38:17.025Z,101728.44
2022-09-07T10:41:04.507Z,101729.09
2022-09-07T10:43:47.665Z,101729.41
2022-09-07T10:46:59.084Z,101726.06
2022-09-07T10:52:58.634Z,101727.72
2022-09-07T10:55:39.209Z,101728.06
2022-09-07T11:01:38.605Z,101720.97
2022-09-07T11:05:01.436Z,101714.22
2022-09-07T11:08:07.949Z,101713.19
2022-09-07T11:10:51.571Z,101718.22
2022-09-07T11:13:55.509Z,101713.72
2022-09-07T11:16:53.150Z,101708.47
2022-09-07T11:19:35.815Z,101711.69
2022-09-07T11:22:35.460Z,101704.91
2022-09-07T11:25:32.077Z,101709.34
2022-09-07T11:28:20.894Z,101703.88
2022-09-07T11:31:03.516Z,101700.00
2022-09-07T11:37:06.184Z,101693.78
2022-09-07T11:39:51.664Z,101688.06
2022-09-07T11:42:44.133Z,101696.09
2022-09-07T11:45:28.974Z,101695.00
2022-09-07T11:48:19.352Z,101702.88
2022-09-07T11:51:02.272Z,101691.88
2022-09-07T11:53:43.110Z,101693.78
2022-09-07T11:56:30.199Z,101692.59
2022-09-07T11:59:33.636Z,101680.28
2022-09-07T12:02:59.401Z,101681.13
2022-09-07T12:06:01.820Z,101679.94
2022-09-07T12:09:00.172Z,101681.84
2022-09-07T12:12:09.081Z,101682.75
2022-09-07T12:14:59.748Z,101679.72
2022-09-07T12:17:58.329Z,101679.75
2022-09-07T12:20:44.477Z,101677.28
2022-09-07T12:23:33.291Z,101666.13
2022-09-07T12:26:57.860Z,101670.56
2022-09-07T12:29:35.969Z,101665.22
2022-09-07T12:35:42.207Z,101669.88
2022-09-07T12:39:09.517Z,101666.22
2022-09-07T12:41:50.142Z,101660.09
2022-09-07T12:44:30.277Z,101656.34
2022-09-07T12:47:27.421Z,101651.13
2022-09-07T12:50:30.843Z,101654.31
2022-09-07T12:53:32.278Z,101654.59
2022-09-07T12:56:42.169Z,101646.22
2022-09-07T12:59:45.111Z,101651.69
2022-09-07T13:02:53.925Z,101643.59
2022-09-07T13:05:54.919Z,101645.22
2022-09-07T13:09:12.613Z,101635.41
2022-09-07T13:11:49.359Z,101647.09
2022-09-07T13:14:31.590Z,101638.81
2022-09-07T13:17:58.494Z,101631.28
2022-09-07T13:20:39.822Z,101630.06
2022-09-07T13:23:28.741Z,101635.94
2022-09-07T13:26:09.007Z,101627.38
2022-09-07T13:29:00.016Z,101629.53
2022-09-07T13:31:58.031Z,101632.03
2022-09-07T13:35:07.465Z,101621.94
2022-09-07T13:37:54.308Z,101637.03
2022-09-07T13:40:37.140Z,101626.19
2022-09-07T13:43:22.687Z,101634.69
2022-09-07T13:46:05.796Z,101626.28
2022-09-07T13:48:50.829Z,101634.91
2022-09-07T13:51:40.709Z,101628.00
2022-09-07T13:54:27.785Z,101630.78
2022-09-07T13:57:15.737Z,101631.44
2022-09-07T13:59:55.655Z,101622.56
2022-09-07T14:02:37.593Z,101625.56
2022-09-07T14:05:21.334Z,101618.09
2022-09-07T14:08:01.122Z,101614.41
2022-09-07T14:10:38.298Z,101618.56
2022-09-07T14:13:16.541Z,101602.34
2022-09-07T14:15:54.393Z,101618.88
2022-09-07T14:18:34.815Z,101611.59
2022-09-07T14:21:20.639Z,101619.06
2022-09-07T14:24:03.688Z,101625.16
2022-09-07T14:26:48.202Z,101619.94
2022-09-07T14:29:31.546Z,101611.00
2022-09-07T14:32:20.619Z,101624.53
2022-09-07T14:34:57.446Z,101617.13
2022-09-07T14:37:34.582Z,101613.75
2022-09-07T14:40:19.938Z,101615.44
2022-09-07T14:42:58.627Z,101604.28
2022-09-07T14:45:38.212Z,101601.59
2022-09-07T14:48:17.362Z,101618.16
2022-09-07T14:51:13.054Z,101608.53
2022-09-07T14:53:53.722Z,101606.00
2022-09-07T14:56:36.811Z,101610.72
2022-09-07T14:59:39.514Z,101602.63
2022-09-07T15:02:30.230Z,101613.25
2022-09-07T15:05:33.112Z,101602.09
2022-09-07T15:08:21.672Z,101602.94
2022-09-07T15:14:14.859Z,101590.25
2022-09-07T15:20:00.844Z,101594.78
2022-09-07T15:22:38.061Z,101585.47
2022-09-07T15:25:15.816Z,101589.31
2022-09-07T15:27:53.017Z,101580.84
2022-09-07T15:30:33.351Z,101576.72
2022-09-07T15:33:11.476Z,101573.16
2022-09-07T15:35:50.861Z,101587.13
2022-09-07T15:41:27.486Z,101584.38
2022-09-07T15:44:05.161Z,101583.66
2022-09-07T15:47:42.467Z,101581.13
2022-09-07T15:49:47.342Z,101589.28
2022-09-07T15:52:26.131Z,101587.38
2022-09-07T15:55:03.323Z,101586.13
2022-09-07T15:58:10.641Z,101582.75
2022-09-07T16:00:37.731Z,101581.97
2022-09-07T16:03:18.510Z,101584.66
2022-09-07T16:05:57.874Z,101583.22
2022-09-07T16:08:34.648Z,101583.53
2022-09-07T16:11:23.942Z,101588.53
2022-09-07T16:14:03.854Z,101595.19
2022-09-07T16:19:41.267Z,101588.97
2022-09-07T16:25:15.530Z,101582.03
2022-09-07T16:27:52.532Z,101588.03
2022-09-07T16:30:31.039Z,101588.91
2022-09-07T16:33:08.412Z,101584.72
2022-09-07T16:35:59.617Z,101587.63
2022-09-07T16:38:44.959Z,101574.78
2022-09-07T16:41:35.201Z,101585.16
2022-09-07T16:44:12.802Z,101592.56
2022-09-07T16:46:50.563Z,101587.78
2022-09-07T16:49:29.396Z,101579.31
2022-09-07T16:52:11.046Z,101582.44
2022-09-07T16:54:51.244Z,101589.25
2022-09-07T16:58:35.153Z,101584.63
2022-09-07T17:00:32.365Z,101589.75
2022-09-07T17:03:11.791Z,101584.34
2022-09-07T17:05:48.845Z,101592.16
2022-09-07T17:08:28.799Z,101589.19
2022-09-07T17:11:08.552Z,101587.94
2022-09-07T17:13:47.426Z,101583.13
2022-09-07T17:16:27.625Z,101589.09
2022-09-07T17:22:03.404Z,101590.53
2022-09-07T17:24:43.018Z,101591.94
2022-09-07T17:27:21.427Z,101594.53
2022-09-07T17:29:58.940Z,101593.09
2022-09-07T17:32:37.197Z,101586.59
2022-09-07T17:35:14.494Z,101592.53
2022-09-07T17:37:52.416Z,101580.50
2022-09-07T17:40:33.053Z,101580.94
2022-09-07T17:46:09.225Z,101590.06
2022-09-07T17:48:46.496Z,101596.72
2022-09-07T17:51:23.666Z,101588.25
2022-09-07T17:54:03.116Z,101583.28
2022-09-07T17:56:43.356Z,101584.69
2022-09-07T18:02:18.443Z,101586.50
2022-09-07T18:04:55.879Z,101590.44
2022-09-07T18:07:33.078Z,101596.06
2022-09-07T18:10:12.074Z,101594.66
2022-09-07T18:12:51.827Z,101588.84
2022-09-07T18:15:29.311Z,101582.03
2022-09-07T18:18:06.805Z,101590.50
2022-09-07T18:20:45.924Z,101593.59
2022-09-07T18:23:23.382Z,101588.66
2022-09-07T18:26:01.457Z,101590.78
2022-09-07T18:31:38.892Z,101594.53
2022-09-07T18:34:20.648Z,101582.91
2022-09-07T18:37:00.351Z,101591.78
2022-09-07T18:39:37.635Z,101590.88
2022-09-07T18:42:20.018Z,101586.31
2022-09-07T18:48:03.967Z,101591.56
2022-09-07T18:50:44.935Z,101595.38
2022-09-07T18:53:25.477Z,101596.19
2022-09-07T18:56:10.624Z,101590.88
2022-09-07T18:58:53.065Z,101593.06
2022-09-07T19:01:41.037Z,101591.84
2022-09-07T19:04:23.535Z,101595.97
2022-09-07T19:07:01.910Z,101605.38
2022-09-07T19:09:39.750Z,101599.53
2022-09-07T19:12:17.166Z,101599.25
2022-09-07T19:14:54.735Z,101603.06
2022-09-07T19:17:35.641Z,101591.63
2022-09-07T19:20:14.365Z,101589.88
2022-09-07T19:22:51.696Z,101588.84
2022-09-07T19:25:31.884Z,101591.44
2022-09-07T19:28:08.969Z,101601.31
2022-09-07T19:30:47.333Z,101601.00
